Time;durP1;ratioP1;P1;durP2;ratioP2;P2;SDS_P1;SDS_P2;PMS_P1;PMS_P2;Temp;Humidity;BMP_temperature;BMP_pressure;BME280_temperature;BME280_humidity;BME280_pressure;Samples;Min_cycle;Max_cycle;Signal;HPM_P1;HPM_P2
2021/10/27 00:01:30;;;;;;;6.20;5.47;;;;;;;7.98;100.00;153410.69;4944038;29;20891;-80
2021/10/27 00:04:06;;;;;;;6.37;5.20;;;;;;;7.99;100.00;153412.00;4970789;28;20515;-80
2021/10/27 00:06:43;;;;;;;6.23;5.63;;;;;;;8.02;100.00;153418.44;4987088;28;20443;-80
2021/10/27 00:09:18;;;;;;;7.37;6.33;;;;;;;7.99;100.00;153413.25;4987326;28;20448;-80
2021/10/27 00:11:54;;;;;;;8.67;5.70;;;;;;;7.99;100.00;153413.25;4986632;28;20442;-80
2021/10/27 00:14:31;;;;;;;7.57;6.53;;;;;;;8.00;100.00;153414.53;4976156;28;20541;-80
2021/10/27 00:17:07;;;;;;;7.83;6.47;;;;;;;8.01;100.00;153417.16;4983784;28;20789;-80
2021/10/27 00:19:43;;;;;;;9.00;8.10;;;;;;;7.97;100.00;153406.78;4987577;28;20455;-80
2021/10/27 00:22:20;;;;;;;8.63;7.73;;;;;;;7.97;100.00;153406.78;4978304;28;20861;-79
2021/10/27 00:24:56;;;;;;;7.97;6.63;;;;;;;7.92;100.00;153393.88;4963302;29;20440;-79
2021/10/27 00:27:32;;;;;;;9.93;7.40;;;;;;;7.91;100.00;153391.31;4974947;28;20450;-80
2021/10/27 00:30:09;;;;;;;9.60;7.50;;;;;;;7.95;100.00;153402.94;4955798;28;20423;-80
2021/10/27 00:32:45;;;;;;;8.33;7.40;;;;;;;7.96;100.00;153404.22;4976403;28;20479;-81
2021/10/27 00:35:20;;;;;;;11.53;8.17;;;;;;;7.93;100.00;153397.78;4961234;28;20486;-80
2021/10/27 00:37:57;;;;;;;11.80;8.87;;;;;;;7.94;100.00;153400.34;4967374;28;20471;-80
2021/10/27 00:40:33;;;;;;;8.40;7.47;;;;;;;7.95;100.00;153401.63;4967494;28;20976;-80
2021/10/27 00:43:08;;;;;;;8.00;7.23;;;;;;;7.90;100.00;153390.03;4973650;28;20454;-80
2021/10/27 00:45:44;;;;;;;10.53;7.93;;;;;;;7.87;100.00;153380.97;4958549;28;20456;-80
2021/10/27 00:48:19;;;;;;;8.57;7.30;;;;;;;7.86;100.00;153378.41;4986430;28;20448;-80
2021/10/27 00:50:55;;;;;;;7.07;6.37;;;;;;;7.81;100.00;153365.50;4982485;28;21011;-79
2021/10/27 00:53:32;;;;;;;8.83;6.73;;;;;;;7.74;100.00;153348.69;4955991;28;20444;-80
2021/10/27 00:56:08;;;;;;;6.63;5.97;;;;;;;7.68;100.00;153333.16;4986063;28;20823;-80
2021/10/27 00:58:44;;;;;;;8.80;6.70;;;;;;;7.68;100.00;153331.84;4986524;28;20450;-80
2021/10/27 01:01:20;;;;;;;7.90;5.63;;;;;;;7.62;100.00;153316.41;4954601;29;20861;-80
2021/10/27 01:03:57;;;;;;;7.87;7.07;;;;;;;7.61;100.00;153315.09;4953074;29;20886;-80
2021/10/27 01:06:33;;;;;;;7.17;6.50;;;;;;;7.56;100.00;153300.88;4984193;28;20521;-80
2021/10/27 01:09:10;;;;;;;7.20;6.50;;;;;;;7.52;100.00;153290.56;4985678;28;20443;-80
2021/10/27 01:11:48;;;;;;;8.33;7.37;;;;;;;7.48;100.00;153280.22;4986245;28;20522;-80
2021/10/27 01:14:33;;;;;;;8.10;7.30;;;;;;;7.46;100.00;153275.06;4985870;28;20442;-80
2021/10/27 01:17:11;;;;;;;9.77;7.80;;;;;;;7.44;100.00;153269.91;4985724;28;20459;-80
2021/10/27 01:19:49;;;;;;;7.83;7.03;;;;;;;7.42;100.00;153266.00;4954847;28;20436;-80
2021/10/27 01:22:27;;;;;;;9.73;7.27;;;;;;;7.43;100.00;153267.31;4949661;28;20589;-80
2021/10/27 01:25:04;;;;;;;10.67;8.10;;;;;;;7.42;100.00;153264.69;4985083;28;20460;-80
2021/10/27 01:27:42;;;;;;;8.60;7.63;;;;;;;7.43;100.00;153267.31;4954577;28;20438;-80
2021/10/27 01:30:20;;;;;;;9.87;7.63;;;;;;;7.43;100.00;153267.31;4952982;28;20452;-80
2021/10/27 01:32:56;;;;;;;9.30;8.33;;;;;;;7.41;100.00;153263.44;4942663;28;20446;-80
2021/10/27 01:35:32;;;;;;;10.63;8.47;;;;;;;7.39;100.00;153257.00;4929714;29;20491;-80
2021/10/27 01:38:08;;;;;;;9.20;8.00;;;;;;;7.41;100.00;153262.16;4954388;28;20826;-80
2021/10/27 01:40:44;;;;;;;9.40;8.33;;;;;;;7.43;100.00;153267.31;4978130;28;20983;-80
2021/10/27 01:43:19;;;;;;;9.10;8.13;;;;;;;7.44;100.00;153271.16;4966694;28;20460;-80
2021/10/27 01:45:55;;;;;;;9.50;8.37;;;;;;;7.51;100.00;153287.97;4971323;28;20468;-80
2021/10/27 01:48:31;;;;;;;8.67;7.87;;;;;;;7.47;100.00;153277.63;4936510;29;20440;-80
2021/10/27 01:51:07;;;;;;;9.93;8.27;;;;;;;7.45;100.00;153273.75;4950467;28;20436;-80
2021/10/27 01:53:43;;;;;;;9.07;8.10;;;;;;;7.42;100.00;153266.00;4947161;28;20451;-79
2021/10/27 01:56:18;;;;;;;10.40;8.60;;;;;;;7.40;100.00;153259.53;4985185;28;20454;-80
2021/10/27 01:58:54;;;;;;;11.10;8.33;;;;;;;7.39;100.00;153257.00;4954803;28;20443;-80
2021/10/27 02:01:30;;;;;;;9.30;8.33;;;;;;;7.35;100.00;153249.25;4984535;28;20835;-79
2021/10/27 02:04:05;;;;;;;13.60;8.70;;;;;;;7.35;100.00;153247.94;4981743;28;20457;-80
2021/10/27 02:06:42;;;;;;;9.93;7.90;;;;;;;7.35;100.00;153249.25;4970578;28;20451;-80
2021/10/27 02:09:18;;;;;;;10.47;8.53;;;;;;;7.32;100.00;153241.47;4981698;28;20463;-80
2021/10/27 02:11:55;;;;;;;10.20;8.07;;;;;;;7.32;100.00;153241.47;4979948;28;20847;-80
2021/10/27 02:14:32;;;;;;;9.47;8.47;;;;;;;7.37;100.00;153253.09;4966120;28;20873;-80
2021/10/27 02:17:08;;;;;;;11.67;9.30;;;;;;;7.38;100.00;153255.69;4980000;28;20464;-80
2021/10/27 02:19:44;;;;;;;10.43;8.60;;;;;;;7.43;100.00;153267.31;4981596;28;20841;-80
2021/10/27 02:22:21;;;;;;;13.30;8.93;;;;;;;7.45;100.00;153272.47;4984228;28;20483;-79
2021/10/27 02:24:57;;;;;;;9.37;8.17;;;;;;;7.43;100.00;153267.31;4965139;28;20452;-80
2021/10/27 02:27:33;;;;;;;11.00;8.57;;;;;;;7.40;100.00;153259.53;4945536;29;20463;-80
2021/10/27 02:30:09;;;;;;;10.50;8.33;;;;;;;7.33;100.00;153244.03;4961488;28;20446;-80
2021/10/27 02:32:45;;;;;;;8.27;7.27;;;;;;;7.31;100.00;153238.88;4952129;28;20451;-80
2021/10/27 02:35:21;;;;;;;10.97;9.13;;;;;;;7.30;100.00;153236.34;4984455;28;20538;-80
2021/10/27 02:37:58;;;;;;;9.43;7.63;;;;;;;7.25;100.00;153223.38;4982607;28;20470;-80
2021/10/27 02:40:33;;;;;;;10.87;8.10;;;;;;;7.21;100.00;153211.78;4955949;28;20424;-80
2021/10/27 02:43:09;;;;;;;9.40;7.47;;;;;;;7.17;100.00;153202.75;4987752;28;20442;-79
2021/10/27 02:45:45;;;;;;;8.63;7.80;;;;;;;7.23;100.00;153216.91;4987999;28;20866;-80
2021/10/27 02:48:21;;;;;;;8.70;7.57;;;;;;;7.19;100.00;153206.63;4989420;28;20447;-80
2021/10/27 02:50:58;;;;;;;10.23;7.90;;;;;;;7.16;100.00;153200.16;4988331;28;20882;-80
2021/10/27 02:53:39;;;;;;;10.27;8.20;;;;;;;7.16;100.00;153200.16;4988733;28;20842;-80
2021/10/27 02:56:15;;;;;;;9.53;8.47;;;;;;;7.16;100.00;153200.16;4986722;28;20443;-80
2021/10/27 02:58:50;;;;;;;11.10;8.70;;;;;;;7.14;100.00;153193.72;4988182;28;20892;-80
2021/10/27 03:01:26;;;;;;;8.93;7.90;;;;;;;7.13;100.00;153192.41;4986277;28;20466;-80
2021/10/27 03:04:02;;;;;;;10.97;9.10;;;;;;;7.14;100.00;153193.72;4989145;28;20425;-79
2021/10/27 03:06:39;;;;;;;9.80;8.40;;;;;;;7.11;100.00;153185.94;4961445;29;20541;-80
2021/10/27 03:09:16;;;;;;;9.80;8.80;;;;;;;7.08;100.00;153178.19;4995926;28;20428;-79
2021/10/27 03:11:53;;;;;;;9.80;7.70;;;;;;;7.07;100.00;153175.66;4959878;29;20427;-80
2021/10/27 03:14:28;;;;;;;11.43;8.50;;;;;;;7.03;100.00;153166.59;4973160;28;20431;-80
2021/10/27 03:17:04;;;;;;;9.57;8.43;;;;;;;7.02;100.00;153162.69;4938948;29;20459;-80
2021/10/27 03:19:39;;;;;;;9.33;8.17;;;;;;;7.03;100.00;153166.59;4986631;28;20545;-80
2021/10/27 03:22:15;;;;;;;10.70;9.30;;;;;;;7.07;100.00;153175.66;4981096;28;20476;-80
2021/10/27 03:24:52;;;;;;;12.30;10.00;;;;;;;7.01;100.00;153161.44;4982930;28;20454;-80
2021/10/27 03:27:28;;;;;;;12.10;9.97;;;;;;;7.01;100.00;153161.44;4954674;28;20444;-80
2021/10/27 03:30:05;;;;;;;9.57;8.57;;;;;;;6.98;100.00;153153.69;4955099;28;20808;-80
2021/10/27 03:32:41;;;;;;;11.90;9.57;;;;;;;6.98;100.00;153153.69;4987760;28;20538;-80
2021/10/27 03:35:16;;;;;;;10.77;8.97;;;;;;;7.03;100.00;153165.28;4985000;28;20977;-80
2021/10/27 03:37:52;;;;;;;11.33;10.13;;;;;;;6.98;100.00;153153.69;4973544;28;20902;-80
2021/10/27 03:40:29;;;;;;;11.43;9.60;;;;;;;6.99;100.00;153156.25;4951313;28;20435;-80
2021/10/27 03:43:04;;;;;;;10.00;8.17;;;;;;;6.96;100.00;153147.25;4956475;28;20487;-80
2021/10/27 03:45:40;;;;;;;10.93;9.03;;;;;;;6.92;100.00;153138.19;4971973;28;20447;-80
2021/10/27 03:48:15;;;;;;;9.80;8.87;;;;;;;6.92;100.00;153136.88;4943346;29;20998;-79
2021/10/27 03:50:51;;;;;;;9.73;8.73;;;;;;;6.94;100.00;153143.34;4945504;28;20452;-80
2021/10/27 03:53:26;;;;;;;11.17;8.93;;;;;;;6.90;100.00;153133.03;4967878;28;20487;-80
2021/10/27 03:56:03;;;;;;;11.70;9.40;;;;;;;6.86;100.00;153122.69;4987333;28;20446;-80
2021/10/27 03:58:39;;;;;;;11.37;10.00;;;;;;;6.87;100.00;153125.28;4944637;28;20922;-80
2021/10/27 04:01:15;;;;;;;11.93;10.40;;;;;;;6.81;100.00;153109.78;4944687;29;20539;-79
2021/10/27 04:03:50;;;;;;;10.50;9.40;;;;;;;6.77;100.00;153098.19;4954855;28;20443;-79
2021/10/27 04:06:26;;;;;;;11.17;10.07;;;;;;;6.75;100.00;153094.31;4987366;28;20530;-79
2021/10/27 04:09:03;;;;;;;10.20;9.10;;;;;;;6.74;100.00;153093.03;4953865;28;20451;-80
2021/10/27 04:11:41;;;;;;;11.40;9.20;;;;;;;6.68;100.00;153076.22;4968099;28;20803;-79
2021/10/27 04:14:17;;;;;;;9.60;8.53;;;;;;;6.64;100.00;153065.91;4968900;28;20481;-80
2021/10/27 04:16:52;;;;;;;11.37;8.87;;;;;;;6.59;100.00;153054.28;4986804;28;20439;-80
2021/10/27 04:19:28;;;;;;;9.23;8.33;;;;;;;6.54;100.00;153041.38;4967399;28;20483;-80
2021/10/27 04:22:04;;;;;;;11.07;9.23;;;;;;;6.53;100.00;153037.50;4967656;28;20487;-80
2021/10/27 04:24:39;;;;;;;12.43;8.33;;;;;;;6.53;100.00;153037.50;4952148;29;20454;-80
2021/10/27 04:27:16;;;;;;;10.07;9.00;;;;;;;6.47;100.00;153022.00;4953583;28;20454;-79
2021/10/27 04:29:51;;;;;;;9.57;8.53;;;;;;;6.44;100.00;153014.28;4941891;28;20847;-80
2021/10/27 04:32:27;;;;;;;9.87;8.87;;;;;;;6.44;100.00;153015.56;4986357;28;20490;-80
2021/10/27 04:35:04;;;;;;;15.50;9.47;;;;;;;6.41;100.00;153007.81;4986973;28;20447;-80
2021/10/27 04:37:44;;;;;;;13.00;10.27;;;;;;;6.41;100.00;153007.81;4986160;28;20487;-80
2021/10/27 04:40:21;;;;;;;10.43;8.87;;;;;;;6.39;100.00;153001.38;4948071;28;20793;-80
2021/10/27 04:42:57;;;;;;;12.60;10.33;;;;;;;6.39;100.00;153001.38;4945829;28;20489;-80
2021/10/27 04:45:33;;;;;;;13.77;9.93;;;;;;;6.36;100.00;152993.63;4949867;29;20447;-80
2021/10/27 04:48:09;;;;;;;9.90;8.27;;;;;;;6.29;100.00;152975.56;4972008;28;20451;-80
2021/10/27 04:50:44;;;;;;;9.03;8.10;;;;;;;6.28;100.00;152972.97;4985295;28;20802;-79
2021/10/27 04:53:22;;;;;;;11.07;9.27;;;;;;;6.23;100.00;152960.06;4986940;28;20451;-80
2021/10/27 04:55:58;;;;;;;11.93;8.90;;;;;;;6.24;100.00;152962.66;4986111;28;20439;-79
2021/10/27 04:58:35;;;;;;;11.53;9.07;;;;;;;6.24;100.00;152962.66;4954564;28;20549;-79
2021/10/27 05:01:10;;;;;;;10.30;8.57;;;;;;;6.18;100.00;152947.19;4952434;28;20482;-80
2021/10/27 05:03:46;;;;;;;11.90;9.00;;;;;;;6.14;100.00;152938.19;4950259;28;20478;-79
2021/10/27 05:06:21;;;;;;;10.73;8.20;;;;;;;6.09;100.00;152926.53;4985468;28;20447;-80
2021/10/27 05:08:57;;;;;;;10.50;8.90;;;;;;;6.07;100.00;152921.38;4984456;28;20447;-79
2021/10/27 05:11:33;;;;;;;9.77;8.47;;;;;;;6.00;100.00;152903.34;4938943;28;20447;-79
2021/10/27 05:14:11;;;;;;;9.13;7.50;;;;;;;6.03;100.00;152909.78;4966602;28;20413;-80
2021/10/27 05:16:47;;;;;;;9.30;8.30;;;;;;;6.00;100.00;152902.03;4969539;28;20487;-79
2021/10/27 05:19:23;;;;;;;10.10;8.63;;;;;;;5.91;100.00;152878.81;4984163;28;20938;-79
2021/10/27 05:21:59;;;;;;;8.80;7.90;;;;;;;5.89;100.00;152874.97;4972696;28;20479;-79
2021/10/27 05:24:35;;;;;;;10.40;8.53;;;;;;;5.88;100.00;152871.06;4953544;29;20447;-79
2021/10/27 05:27:11;;;;;;;9.20;7.63;;;;;;;5.83;100.00;152859.41;4973679;28;20464;-79
2021/10/27 05:29:47;;;;;;;10.47;8.83;;;;;;;5.83;100.00;152858.13;4978276;28;20455;-79
2021/10/27 05:32:24;;;;;;;9.50;8.50;;;;;;;5.80;100.00;152851.66;4954688;28;20458;-79
2021/10/27 05:35:00;;;;;;;10.50;8.13;;;;;;;5.80;100.00;152850.44;4991815;28;20486;-79
2021/10/27 05:37:35;;;;;;;10.20;9.10;;;;;;;5.79;100.00;152849.13;4965622;28;20484;-79
2021/10/27 05:40:12;;;;;;;10.63;9.10;;;;;;;5.74;100.00;152834.94;4970757;28;20994;-79
2021/10/27 05:42:47;;;;;;;10.40;8.50;;;;;;;5.75;100.00;152837.47;4954016;28;20609;-79
2021/10/27 05:45:26;;;;;;;10.40;9.20;;;;;;;5.72;100.00;152831.03;4969664;28;20777;-79
2021/10/27 05:48:02;;;;;;;9.27;8.27;;;;;;;5.72;100.00;152831.03;4963465;28;20537;-79
2021/10/27 05:50:40;;;;;;;12.03;8.87;;;;;;;5.73;100.00;152833.63;4997328;28;20473;-78
2021/10/27 05:56:09;;;;;;;10.87;9.40;;;;;;;5.77;100.00;152842.69;4973102;28;20431;-79
2021/10/27 05:58:45;;;;;;;11.00;9.90;;;;;;;5.78;100.00;152846.53;4956897;28;20548;-79
2021/10/27 06:01:22;;;;;;;12.77;10.33;;;;;;;5.79;100.00;152849.13;4974557;28;20482;-79
2021/10/27 06:03:57;;;;;;;10.70;9.43;;;;;;;5.80;100.00;152851.66;4954689;29;20479;-79
2021/10/27 06:06:33;;;;;;;10.20;8.97;;;;;;;5.81;100.00;152854.28;4971977;28;20481;-79
2021/10/27 06:09:09;;;;;;;12.20;9.37;;;;;;;5.82;100.00;152856.88;4977846;28;20447;-79
2021/10/27 06:11:45;;;;;;;11.13;9.93;;;;;;;5.85;100.00;152864.63;4961940;28;20442;-79
2021/10/27 06:14:21;;;;;;;12.93;10.07;;;;;;;5.88;100.00;152872.34;4962705;28;20474;-79
2021/10/27 06:16:58;;;;;;;11.50;10.30;;;;;;;5.97;100.00;152895.59;4958455;28;20925;-79
2021/10/27 06:19:33;;;;;;;10.53;9.43;;;;;;;6.05;100.00;152916.25;4966894;28;20451;-79
2021/10/27 06:22:09;;;;;;;12.80;10.77;;;;;;;6.19;100.00;152949.78;4992332;28;20478;-79
2021/10/27 06:24:45;;;;;;;12.50;11.20;;;;;;;6.25;100.00;152966.53;4988105;28;20537;-79
2021/10/27 06:27:21;;;;;;;14.30;11.67;;;;;;;6.37;100.00;152996.22;4951324;28;20545;-79
2021/10/27 06:30:04;;;;;;;15.50;11.63;;;;;;;6.50;100.00;153031.06;4985513;28;20565;-79
2021/10/27 06:32:48;;;;;;;12.70;11.40;;;;;;;6.66;100.00;153071.06;4976988;28;20441;-79
2021/10/27 06:35:26;;;;;;;16.13;12.53;;;;;;;6.81;100.00;153108.47;4959342;28;20426;-79
2021/10/27 06:46:44;;;;;;;13.47;11.00;;;;;;;7.42;100.00;153264.69;4973693;28;20450;-79
2021/10/27 06:49:21;;;;;;;12.93;10.87;;;;;;;7.52;100.00;153290.56;4959073;28;20454;-79
2021/10/27 06:51:56;;;;;;;12.73;11.43;;;;;;;7.62;100.00;153316.41;4980175;28;20486;-80
2021/10/27 06:54:32;;;;;;;17.23;11.40;;;;;;;7.74;100.00;153347.38;5001702;28;20453;-79
2021/10/27 06:57:07;;;;;;;13.10;11.50;;;;;;;7.83;100.00;153370.66;4971028;28;20462;-79
2021/10/27 06:59:43;;;;;;;13.63;11.07;;;;;;;7.91;100.00;153391.31;4976753;28;20864;-79
2021/10/27 07:16:55;;;;;;;11.57;10.20;;;;;;;8.31;100.00;153493.47;4965368;28;21693;-80
2021/10/27 07:19:30;;;;;;;11.33;10.13;;;;;;;8.36;100.00;153507.69;4990655;28;20450;-79
2021/10/27 07:22:08;;;;;;;10.63;9.60;;;;;;;8.53;100.00;153551.59;4990568;28;20941;-79
2021/10/27 07:24:45;;;;;;;12.90;9.80;;;;;;;8.68;100.00;153587.81;4990566;28;20450;-79
2021/10/27 07:27:21;;;;;;;13.43;10.07;;;;;;;8.86;100.00;153634.34;4968138;28;20478;-79
2021/10/27 07:29:57;;;;;;;14.17;9.20;;;;;;;8.99;100.00;153669.25;4954723;28;20799;-79
2021/10/27 07:32:32;;;;;;;13.53;9.73;;;;;;;9.14;100.00;153708.03;4968559;28;20454;-79
2021/10/27 07:35:17;;;;;;;14.37;9.63;;;;;;;9.18;100.00;153717.13;4949890;28;20461;-79
2021/10/27 07:40:48;;;;;;;11.20;10.10;;;;;;;9.43;100.00;153780.47;4989575;28;20446;-79
2021/10/27 07:43:30;;;;;;;9.90;8.90;;;;;;;9.49;100.00;153796.00;4954626;28;20826;-79
2021/10/27 07:46:05;;;;;;;11.30;9.10;;;;;;;9.53;100.00;153806.38;4984236;28;20446;-80
2021/10/27 07:48:41;;;;;;;10.10;9.00;;;;;;;9.61;100.00;153828.34;4974140;28;20446;-79
2021/10/27 07:51:17;;;;;;;10.70;9.70;;;;;;;9.59;100.00;153823.16;4990378;28;20533;-80
2021/10/27 07:53:54;;;;;;;8.43;7.37;;;;;;;9.66;100.00;153841.25;4984196;28;20449;-80
2021/10/27 07:56:32;;;;;;;10.00;8.50;;;;;;;9.67;100.00;153843.88;4982975;28;20454;-80
2021/10/27 07:59:08;;;;;;;11.33;8.20;;;;;;;9.69;100.00;153849.03;4975210;28;20937;-80
2021/10/27 08:01:43;;;;;;;9.53;8.63;;;;;;;9.67;100.00;153842.56;4959522;28;20418;-79
2021/10/27 08:04:19;;;;;;;9.40;8.40;;;;;;;9.74;100.00;153861.97;4989951;28;20473;-80
2021/10/27 08:06:55;;;;;;;9.03;7.80;;;;;;;9.62;100.00;153830.94;4989641;28;20937;-80
2021/10/27 08:09:32;;;;;;;9.10;8.00;;;;;;;9.58;100.00;153819.31;4957976;28;20501;-80
2021/10/27 08:12:08;;;;;;;8.60;7.60;;;;;;;9.60;100.00;153825.78;4942988;28;20446;-80
2021/10/27 08:14:44;;;;;;;9.83;8.30;;;;;;;9.67;100.00;153842.56;4955088;28;20466;-80
2021/10/27 08:17:20;;;;;;;9.40;8.50;;;;;;;9.77;100.00;153868.44;4959137;28;20434;-80
2021/10/27 08:19:55;;;;;;;9.87;8.50;;;;;;;9.80;100.00;153877.50;4957504;28;20438;-80
2021/10/27 08:22:31;;;;;;;8.57;7.77;;;;;;;9.82;100.00;153880.13;4985295;28;20446;-80
2021/10/27 08:25:17;;;;;;;10.63;7.73;;;;;;;9.82;100.00;153882.69;4980915;28;21023;-80
2021/10/27 08:27:55;;;;;;;9.03;7.90;;;;;;;9.89;100.00;153899.53;4941194;28;20486;-80
2021/10/27 08:30:37;;;;;;;15.10;8.90;;;;;;;9.89;100.00;153898.22;4981428;28;20896;-79
2021/10/27 08:33:34;;;;;;;10.23;8.70;;;;;;;9.99;100.00;153925.38;4943996;28;20533;-79
2021/10/27 08:36:10;;;;;;;9.53;8.57;;;;;;;10.05;100.00;153940.94;4982463;28;20459;-80
2021/10/27 08:38:45;;;;;;;11.33;10.23;;;;;;;10.15;100.00;153966.88;4969706;28;20574;-80
2021/10/27 08:41:22;;;;;;;9.43;8.53;;;;;;;10.16;100.00;153969.47;4970455;28;20933;-80
2021/10/27 08:43:59;;;;;;;10.03;9.03;;;;;;;10.10;99.27;153952.56;4970259;28;20475;-80
2021/10/27 08:46:35;;;;;;;9.23;8.30;;;;;;;10.07;99.72;153944.81;4971455;28;20442;-80
2021/10/27 08:49:11;;;;;;;9.53;8.57;;;;;;;10.09;100.00;153949.97;4989760;28;20442;-80
2021/10/27 08:51:47;;;;;;;9.00;8.10;;;;;;;10.15;100.00;153966.88;4973549;28;20525;-79
2021/10/27 08:54:22;;;;;;;10.70;9.27;;;;;;;10.17;100.00;153970.72;4987513;28;20448;-80
2021/10/27 08:57:03;;;;;;;8.87;7.70;;;;;;;10.22;100.00;153984.97;4969409;28;20916;-80
2021/10/27 08:59:45;;;;;;;8.80;7.63;;;;;;;10.21;100.00;153982.41;4971708;28;20461;-80
2021/10/27 09:38:03;;;;;;;9.50;8.53;;;;;;;10.80;99.17;154133.84;4954549;28;20514;-79
2021/10/27 09:44:02;;;;;;;10.30;7.90;;;;;;;10.94;97.31;154168.81;4970020;28;20558;-80
2021/10/27 09:47:14;;;;;;;10.37;8.57;;;;;;;10.98;97.78;154180.53;4956106;28;20797;-80
2021/10/27 09:56:10;;;;;;;10.60;9.57;;;;;;;11.05;98.61;154196.03;4953300;28;20530;-80
2021/10/27 10:04:45;;;;;;;8.30;7.40;;;;;;;11.53;95.10;154320.41;4983269;28;20511;-81
2021/10/27 10:07:23;;;;;;;10.30;7.37;;;;;;;11.57;93.87;154330.75;4962884;28;20455;-80
2021/10/27 10:09:58;;;;;;;7.70;6.80;;;;;;;11.53;94.57;154320.41;4966869;28;20447;-80
2021/10/27 10:12:36;;;;;;;8.77;6.50;;;;;;;11.48;94.85;154308.75;4965788;28;20811;-80
2021/10/27 10:15:12;;;;;;;7.03;6.37;;;;;;;11.76;93.09;154380.06;4983117;28;21007;-80
2021/10/27 10:17:49;;;;;;;8.73;7.10;;;;;;;11.90;91.62;154415.06;4950683;28;20485;-80
2021/10/27 10:20:25;;;;;;;9.10;8.10;;;;;;;12.01;90.95;154443.59;4953110;28;20470;-80
2021/10/27 10:25:55;;;;;;;8.17;7.37;;;;;;;11.88;90.93;154411.19;5081001;27;20523;-80
2021/10/27 10:28:38;;;;;;;9.50;7.77;;;;;;;11.81;91.44;154393.00;5089430;28;20442;-81
2021/10/27 10:31:30;;;;;;;9.70;8.27;;;;;;;11.69;92.74;154361.94;5101514;28;20533;-80
2021/10/27 10:34:09;;;;;;;10.00;7.73;;;;;;;11.79;92.52;154387.84;5059685;28;20447;-81
2021/10/27 10:36:45;;;;;;;8.87;7.97;;;;;;;11.82;92.04;154395.63;5052589;28;20441;-80
2021/10/27 10:39:42;;;;;;;8.57;7.67;;;;;;;11.90;91.71;154416.38;5091945;28;20486;-80
2021/10/27 10:42:51;;;;;;;7.53;6.53;;;;;;;11.94;90.68;154426.72;5087799;28;20434;-80
2021/10/27 10:45:39;;;;;;;8.40;7.40;;;;;;;11.88;90.56;154411.19;5099275;28;20505;-80
2021/10/27 10:57:54;;;;;;;7.43;6.00;;;;;;;11.80;91.22;154389.16;5009602;28;20880;-80
2021/10/27 11:00:50;;;;;;;8.43;6.57;;;;;;;11.70;92.06;154364.53;5033242;28;20450;-80
2021/10/27 11:03:50;;;;;;;7.50;6.70;;;;;;;11.79;91.95;154387.84;5061210;28;20518;-80
2021/10/27 11:24:44;;;;;;;9.03;6.30;;;;;;;12.13;88.17;154475.97;5075401;28;20545;-80
2021/10/27 11:39:37;;;;;;;7.67;6.57;;;;;;;12.25;88.15;154504.50;5005676;28;20452;-80
2021/10/27 11:42:36;;;;;;;7.00;6.17;;;;;;;12.33;88.88;154525.25;5073871;28;20474;-80
2021/10/27 11:45:39;;;;;;;7.70;6.27;;;;;;;12.50;87.31;154569.31;5086114;28;20474;-80
2021/10/27 11:48:20;;;;;;;6.93;6.23;;;;;;;12.35;87.54;154531.75;5042734;28;20438;-80
2021/10/27 11:50:55;;;;;;;7.70;6.10;;;;;;;12.38;86.47;154538.22;5054787;28;20535;-80
2021/10/27 11:53:33;;;;;;;7.00;6.03;;;;;;;12.46;86.05;154560.28;5052770;28;20443;-80
2021/10/27 11:56:13;;;;;;;6.20;5.57;;;;;;;12.56;83.98;154584.91;5085131;28;20442;-81
2021/10/27 11:58:50;;;;;;;6.50;5.60;;;;;;;12.32;84.61;154522.66;5052679;28;20841;-80
2021/10/27 12:01:30;;;;;;;7.73;5.63;;;;;;;12.46;83.88;154558.97;5081495;28;20475;-80
2021/10/27 12:04:10;;;;;;;5.30;4.03;;;;;;;12.45;83.50;154557.66;5052884;28;20502;-80
2021/10/27 12:06:49;;;;;;;4.43;3.20;;;;;;;12.54;82.60;154581.03;5051939;28;20777;-80
2021/10/27 12:09:37;;;;;;;6.20;4.10;;;;;;;12.52;81.42;154575.78;5060909;28;21392;-80
2021/10/27 12:12:29;;;;;;;6.10;4.67;;;;;;;12.56;82.52;154584.91;5051614;28;20447;-78
2021/10/27 12:18:10;;;;;;;9.17;4.43;;;;;;;12.53;82.09;154578.41;5021487;28;20442;-80
2021/10/27 12:20:57;;;;;;;4.90;4.40;;;;;;;12.62;81.17;154601.78;5048670;28;20458;-80
2021/10/27 12:23:33;;;;;;;4.20;3.80;;;;;;;12.50;82.63;154569.31;5050898;28;20438;-80
2021/10/27 12:26:11;;;;;;;5.43;4.60;;;;;;;12.56;81.66;154586.19;5067423;28;20506;-81
2021/10/27 12:28:50;;;;;;;6.80;4.70;;;;;;;12.53;81.96;154577.09;5064941;28;20455;-80
2021/10/27 12:31:26;;;;;;;4.97;4.47;;;;;;;12.45;82.55;154556.34;5053665;28;20443;-80
2021/10/27 12:34:01;;;;;;;3.83;3.30;;;;;;;12.44;82.13;154555.09;5079600;28;20813;-80
2021/10/27 12:36:38;;;;;;;4.60;3.63;;;;;;;12.52;82.33;154575.78;5050599;28;20517;-80
2021/10/27 12:39:18;;;;;;;3.23;2.90;;;;;;;12.62;80.49;154600.47;5045545;28;20819;-80
2021/10/27 12:42:06;;;;;;;4.60;3.63;;;;;;;12.66;80.04;154612.13;5052765;28;20423;-80
2021/10/27 12:44:47;;;;;;;3.83;3.20;;;;;;;12.68;79.64;154616.03;5085173;28;20475;-80
2021/10/27 12:47:25;;;;;;;3.50;2.70;;;;;;;12.61;78.62;154597.84;5052158;28;20439;-80
2021/10/27 12:50:06;;;;;;;3.30;2.57;;;;;;;12.81;78.03;154651.03;5031908;28;20471;-80
2021/10/27 12:52:52;;;;;;;3.17;2.73;;;;;;;12.95;77.29;154684.75;5049227;28;20454;-81
2021/10/27 12:55:30;;;;;;;3.10;2.70;;;;;;;12.86;77.15;154661.44;5083758;28;20442;-80
2021/10/27 12:58:08;;;;;;;7.83;2.53;;;;;;;12.88;76.35;154667.91;5049695;28;20448;-80
2021/10/27 13:00:59;;;;;;;5.13;3.30;;;;;;;12.82;77.64;154653.63;5085347;28;20470;-80
2021/10/27 13:04:00;;;;;;;4.63;4.00;;;;;;;12.78;77.96;154643.28;5037073;28;21028;-81
2021/10/27 13:06:44;;;;;;;4.53;2.60;;;;;;;12.75;77.78;154635.50;5048789;28;20427;-80
2021/10/27 13:12:23;;;;;;;4.17;3.17;;;;;;;12.82;77.81;154653.63;5045936;28;20443;-80
2021/10/27 13:18:05;;;;;;;5.17;4.33;;;;;;;12.93;78.56;154680.88;5034780;28;20903;-80
2021/10/27 13:29:39;;;;;;;5.90;5.30;;;;;;;13.02;80.11;154702.94;5035466;28;20447;-80
2021/10/27 13:32:16;;;;;;;6.87;5.70;;;;;;;13.04;79.27;154709.44;5072100;28;20427;-80
2021/10/27 13:34:52;;;;;;;6.30;5.63;;;;;;;13.14;79.81;154735.41;5079403;28;20451;-80
2021/10/27 13:37:29;;;;;;;5.93;5.33;;;;;;;13.13;78.61;154731.53;5068260;28;20458;-80
2021/10/27 13:40:06;;;;;;;6.50;5.50;;;;;;;13.22;78.55;154756.19;5080150;28;20435;-80
2021/10/27 13:42:46;;;;;;;8.13;6.30;;;;;;;13.14;78.66;154735.41;5051618;28;20450;-80
2021/10/27 13:45:27;;;;;;;8.33;6.40;;;;;;;13.23;78.42;154758.78;5051462;28;20467;-80
2021/10/27 13:48:10;;;;;;;8.30;5.67;;;;;;;13.26;79.36;154766.53;5071579;28;20837;-80
2021/10/27 14:08:28;;;;;;;6.13;4.70;;;;;;;13.38;78.37;154796.38;4997922;28;20443;-80
2021/10/27 14:11:08;;;;;;;6.10;5.50;;;;;;;13.62;77.22;154857.38;5029385;28;20442;-81
2021/10/27 14:17:05;;;;;;;5.70;5.13;;;;;;;13.46;77.65;154815.84;5033909;28;20442;-81
2021/10/27 14:22:58;;;;;;;7.60;5.70;;;;;;;13.47;78.05;154818.47;5058473;28;20459;-81
2021/10/27 14:40:40;;;;;;;5.17;4.53;;;;;;;13.47;77.75;154818.47;5074002;28;20463;-80
2021/10/27 15:20:52;;;;;;;4.40;3.90;;;;;;;13.30;77.25;154776.94;5072841;28;20852;-81
2021/10/27 15:23:36;;;;;;;4.03;3.60;;;;;;;13.41;76.07;154805.50;5036699;28;20439;-80
2021/10/27 15:29:35;;;;;;;5.17;3.50;;;;;;;13.39;76.44;154800.31;5038764;28;20928;-80
2021/10/27 15:32:23;;;;;;;8.60;6.83;;;;;;;13.33;76.80;154784.72;5052206;28;20455;-80
2021/10/27 15:35:18;;;;;;;8.67;7.17;;;;;;;13.28;77.25;154770.44;5048856;28;20479;-81
2021/10/27 15:41:02;;;;;;;3.83;2.57;;;;;;;13.22;77.15;154754.88;5049145;28;20462;-80
2021/10/27 15:43:45;;;;;;;3.47;3.03;;;;;;;13.13;77.78;154732.78;5068078;28;20991;-81
2021/10/27 15:52:18;;;;;;;3.90;2.67;;;;;;;13.05;77.92;154710.72;5029603;28;21047;-81
2021/10/27 15:54:54;;;;;;;5.17;2.90;;;;;;;13.05;77.85;154712.00;5033962;28;20510;-80
2021/10/27 15:57:29;;;;;;;3.47;3.17;;;;;;;12.98;78.73;154692.53;5038876;28;20801;-80
2021/10/27 16:00:08;;;;;;;8.70;5.93;;;;;;;12.86;79.05;154662.72;5054080;28;20465;-81
2021/10/27 16:02:43;;;;;;;3.77;3.37;;;;;;;12.80;79.38;154647.16;5051386;28;20451;-81